AirNav   ProFlight Series 2 Aviation Headset
 
 1028 users online  

MI40 Fairlane Plaza Heliport
Dearborn, Michigan, USA

GOING TO DEARBORN?


FAA INFORMATION EFFECTIVE 18 JUNE 2020

Location

FAA Identifier: MI40
Lat/Long: 42-19-15.1350N 083-13-09.7380W
42-19.252250N 083-13.162300W
42.3208708,-83.2193717
(estimated)
Elevation: 614 ft. / 187 m (estimated)
Variation: 05W (1985)
Time zone: UTC -4 (UTC -5 during Standard Time)
Zip code: 48126

Heliport Operations

Heliport use: Private use. Permission required prior to landing
Activation date: 10/1989
Control tower: no
ARTCC: CLEVELAND CENTER
FSS: LANSING FLIGHT SERVICE STATION
Attendance: UNATNDD
Wind indicator: yes
Segmented circle: yes
Lights: FOR PERIMETER LGTS CALL 313-845-3900.

Heliport Communications

WX ASOS at DTW (9 nm SW): 133.675 (734-955-5015)
WX ASOS at DET (11 nm NE): PHONE 313-371-9696
WX AWOS-3 at VLL (13 nm N): 119.475 (248-288-4649)
WX AWOS-3 at ONZ (14 nm S): 119.675 (734-692-9686)
WX ASOS at YIP (15 nm W): PHONE 734-961-6843

Nearby radio navigation aids

VOR radial/distance  VOR name  Freq  Var
DXOr051/9.2DETROIT VOR/DME113.4006W
SVMr111/17.4SALEM VORTAC114.3003W
CRLr036/19.5CARLETON VOR/DME115.7003W

 
NDB name  Hdg/Dist  Freq  Var  ID
GROSSE ILE354/13.541907WRYS .-. -.-- ...
TECUMSEH066/34.323906WTCU - -.-. ..-

Heliport Services

Runway Information

Helipad H1

Dimensions: 44 x 40 ft. / 13 x 12 m
Surface: concrete
Runway edge lights: PERI
Latitude: 42-19.252250N
Longitude: 083-13.162300W
Elevation: 614.0 ft.
Traffic pattern: leftleft

Heliport Ownership and Management from official FAA records

Ownership: Privately-owned
Owner: FORD MOTOR LAND DEVELOPMENT
330 TOWN CENTER DR, SUITE 1100
DEARBORN, MI 48126
Phone 313-323-4140
Manager: MELISSA MAYNARD
330 TOWN CENTER DR, SUITE 300
DEARBORN, MI 48126
Phone (313) 206-8337
ROBERT PORCHIA, 313-323-0381, RPOCHIA@FORD.COM

Additional Remarks

FOR CD CTC DETROIT APCH AT 800-499-8181.

Instrument Procedures

There are no published instrument procedures at MI40.

Some nearby airports with instrument procedures:

KDTW - Detroit Metropolitan Wayne County Airport (9 nm SW)
1D2 - Canton-Plymouth-Mettetal Airport (11 nm W)
KDET - Coleman A Young Municipal Airport (11 nm NE)
KVLL - Oakland/Troy Airport (13 nm N)
KONZ - Grosse Ile Municipal Airport (14 nm S)
KYIP - Willow Run Airport (15 nm W)
 
Loc | Ops | Rwys | IFR | FBO | Links
Com | Nav | Svcs | Stats | Notes
Area around MI40 (Fairlane Plaza Heliport)
 
Road maps at: MapQuest Bing Google
 
Aerial photo
No photo
 
Sectional chart

 
Airport distance calculator
Flying to Fairlane Plaza Heliport? Find the distance to fly.

From to MI40

Sunrise and sunset
Times for 02-Jul-2020
 Local
(UTC-4)
 Zulu
(UTC)
Morning civil twilight05:2809:28
Sunrise06:0210:02
Sunset21:1201:12
Evening civil twilight21:4701:47

Current date and time
Zulu (UTC)  02-Jul-2020 22:24:01
Local (UTC-4)  02-Jul-2020 18:24:01
 
METAR
KDTW 
7nm SW 
022153Z 18008KT 10SM SCT070 31/17 A2999 RMK AO2 SLP152 T03060172
KDET 
10nm NE 
022153Z 19007KT 10SM CLR 30/18 A2999 RMK AO2 SLP150 T03000178
CYQG 
12nm E 
022100Z AUTO 20007KT 160V220 9SM BKN065 BKN076 31/18 A3000 RMK SLP156 DENSITY ALT 2500FT
KVLL 
13nm N 
022156Z AUTO 00000KT 10SM CLR 33/11 A3001 RMK AO2 T03290111
KONZ 
14nm S 
022155Z AUTO 19006KT 10SM CLR 27/21 A2999 RMK AO2 T02700206
KYIP 
15nm W 
022153Z 34007KT 10SM CLR 33/14 A2999 RMK AO2 SLP149 T03330144
TAF
KDTW 
7nm SW 
021729Z 0218/0324 34004KT P6SM SCT060 SCT250 FM021900 16006KT P6SM FEW080 SCT250 FM030200 28004KT P6SM SCT250
KDET 
10nm NE 
021729Z 0218/0318 14006KT P6SM FEW050 SCT250 FM021900 10006KT P6SM FEW080 SCT250 FM030200 28004KT P6SM SCT250
CYQG 
12nm E 
021740Z 0218/0318 05008KT P6SM SKC FM030200 VRB03KT P6SM SKC FM031700 02010KT P6SM FEW060 RMK FCST BASED ON AUTO OBS. NXT FCST BY 030000Z
KYIP 
15nm W 
021729Z 0218/0318 33005KT P6SM SCT060 SCT250 FM021900 16006KT P6SM FEW080 SCT250 FM030200 28004KT P6SM SCT250
NOTAMs
Click for the latest NOTAMs
NOTAMs are issued by the DoD/FAA and will open in a separate window not controlled by AirNav.

 

 
 

Would you like to see your business listed on this page?

 If your business provides an interesting product or service to pilots, flight crews, aircraft, or users of the Fairlane Plaza Heliport, you should consider listing it here.  To start the listing process, click on the button below
 
Add a business
 

Other Pages about Fairlane Plaza Heliport

Update a link
 
Copyright © AirNav, LLC. All rights reserved. Privacy Policy  Contact